createdAt,value
2023-03-27T00:01:01.577Z,7.80
2023-03-27T00:03:29.854Z,7.80
2023-03-27T00:06:01.477Z,7.70
2023-03-27T00:08:29.384Z,7.70
2023-03-27T00:10:57.188Z,7.60
2023-03-27T00:13:24.251Z,7.60
2023-03-27T00:15:51.205Z,7.50
2023-03-27T00:18:18.064Z,7.40
2023-03-27T00:20:44.805Z,7.40
2023-03-27T00:23:13.261Z,7.40
2023-03-27T00:25:40.913Z,7.50
2023-03-27T00:28:08.470Z,7.50
2023-03-27T00:30:36.159Z,7.50
2023-03-27T00:33:03.138Z,7.50
2023-03-27T00:35:30.453Z,7.40
2023-03-27T00:37:58.965Z,7.40
2023-03-27T00:40:26.018Z,7.40
2023-03-27T00:42:57.723Z,7.30
2023-03-27T00:45:28.845Z,7.40
2023-03-27T00:48:04.625Z,7.40
2023-03-27T00:50:36.993Z,7.40
2023-03-27T00:53:09.161Z,7.40
2023-03-27T00:55:41.281Z,7.30
2023-03-27T00:58:13.594Z,7.20
2023-03-27T01:00:40.522Z,7.20
2023-03-27T01:03:08.893Z,7.20
2023-03-27T01:05:37.175Z,7.10
2023-03-27T01:08:04.723Z,7.20
2023-03-27T01:10:50.481Z,7.20
2023-03-27T01:13:44.459Z,7.20
2023-03-27T01:16:26.003Z,7.10
2023-03-27T01:19:12.351Z,7.10
2023-03-27T01:22:07.452Z,7.00
2023-03-27T01:24:55.188Z,7.00
2023-03-27T01:27:38.678Z,7.00
2023-03-27T01:30:26.441Z,6.80
2023-03-27T01:33:21.574Z,6.80
2023-03-27T01:35:51.235Z,6.70
2023-03-27T01:38:46.069Z,6.70
2023-03-27T01:41:30.642Z,6.70
2023-03-27T01:44:03.844Z,6.70
2023-03-27T01:46:48.201Z,6.60
2023-03-27T01:49:21.312Z,6.70
2023-03-27T01:51:57.853Z,6.60
2023-03-27T01:54:43.558Z,6.60
2023-03-27T01:57:22.402Z,6.60
2023-03-27T01:59:54.873Z,6.60
2023-03-27T02:02:33.405Z,6.40
2023-03-27T02:05:14.140Z,6.60
2023-03-27T02:07:53.831Z,6.60
2023-03-27T02:10:31.355Z,6.50
2023-03-27T02:13:07.345Z,6.60
2023-03-27T02:15:36.610Z,6.60
2023-03-27T02:18:10.095Z,6.60
2023-03-27T02:20:39.191Z,6.70
2023-03-27T02:23:07.781Z,6.70
2023-03-27T02:25:35.786Z,6.70
2023-03-27T02:28:14.607Z,6.60
2023-03-27T02:31:34.764Z,6.50
2023-03-27T02:34:13.494Z,6.60
2023-03-27T02:37:03.918Z,6.50
2023-03-27T02:39:45.497Z,6.50
2023-03-27T02:42:16.113Z,6.50
2023-03-27T02:45:00.412Z,6.60
2023-03-27T02:47:57.244Z,6.60
2023-03-27T02:50:33.488Z,6.60
2023-03-27T02:53:03.423Z,6.40
2023-03-27T02:55:36.272Z,6.40
2023-03-27T02:58:16.556Z,6.40
2023-03-27T03:00:48.909Z,6.40
2023-03-27T03:03:28.660Z,6.30
2023-03-27T03:05:57.082Z,6.30
2023-03-27T03:08:25.100Z,6.30
2023-03-27T03:10:51.974Z,6.30
2023-03-27T03:13:18.738Z,6.10
2023-03-27T03:15:46.490Z,6.00
2023-03-27T03:18:14.173Z,6.00
2023-03-27T03:20:41.303Z,6.00
2023-03-27T03:23:09.171Z,6.10
2023-03-27T03:25:36.032Z,6.10
2023-03-27T03:28:02.915Z,6.10
2023-03-27T03:30:30.521Z,5.90
2023-03-27T03:32:57.768Z,6.00
2023-03-27T03:35:25.776Z,6.00
2023-03-27T03:37:52.863Z,6.10
2023-03-27T03:40:20.492Z,6.00
2023-03-27T03:42:51.774Z,6.10
2023-03-27T03:45:19.595Z,6.10
2023-03-27T03:47:46.859Z,6.20
2023-03-27T03:50:13.988Z,6.30
2023-03-27T03:52:41.838Z,6.30
2023-03-27T03:55:11.955Z,6.30
2023-03-27T03:57:38.954Z,6.30
2023-03-27T04:00:08.793Z,6.40
2023-03-27T04:02:37.320Z,6.50
2023-03-27T04:05:08.796Z,6.60
2023-03-27T04:07:36.694Z,6.60
2023-03-27T04:10:03.960Z,6.70
2023-03-27T04:12:31.024Z,6.80
2023-03-27T04:14:57.845Z,6.80
2023-03-27T04:17:26.480Z,7.00
2023-03-27T04:19:57.491Z,7.00
2023-03-27T04:22:24.343Z,7.20
2023-03-27T04:24:51.151Z,8.00
2023-03-27T04:27:18.390Z,9.90
2023-03-27T04:29:47.285Z,11.90
2023-03-27T04:32:19.168Z,13.50
2023-03-27T04:34:48.312Z,14.50
2023-03-27T04:37:15.323Z,15.20
2023-03-27T04:39:46.237Z,15.60
2023-03-27T04:42:16.457Z,15.80
2023-03-27T04:44:46.045Z,16.00
2023-03-27T04:47:12.913Z,15.90
2023-03-27T04:49:42.297Z,15.80
2023-03-27T04:52:09.592Z,15.80
2023-03-27T04:54:36.465Z,15.80
2023-03-27T04:57:03.778Z,15.90
2023-03-27T04:59:32.007Z,16.20
2023-03-27T05:01:59.985Z,16.50
2023-03-27T05:04:27.695Z,16.40
2023-03-27T05:06:56.268Z,16.60
2023-03-27T05:09:23.674Z,16.70
2023-03-27T05:11:51.042Z,16.90
2023-03-27T05:14:22.551Z,17.20
2023-03-27T05:16:50.684Z,17.50
2023-03-27T05:19:20.170Z,17.70
2023-03-27T05:21:49.950Z,17.90
2023-03-27T05:24:16.756Z,17.70
2023-03-27T05:26:43.826Z,18.00
2023-03-27T05:29:10.721Z,17.70
2023-03-27T05:31:38.347Z,17.50
2023-03-27T05:34:05.874Z,17.10
2023-03-27T05:36:32.985Z,17.40
2023-03-27T05:38:59.893Z,18.00
2023-03-27T05:41:26.708Z,18.10
2023-03-27T05:43:53.790Z,18.30
2023-03-27T05:46:21.741Z,18.40
2023-03-27T05:48:49.143Z,18.40
2023-03-27T05:51:17.595Z,18.70
2023-03-27T05:53:44.366Z,18.50
2023-03-27T05:56:11.127Z,18.80
2023-03-27T05:58:38.804Z,18.90
2023-03-27T06:01:06.009Z,18.80
2023-03-27T06:03:38.151Z,18.50
2023-03-27T06:06:10.314Z,18.70
2023-03-27T06:08:37.727Z,18.50
2023-03-27T06:11:12.297Z,19.10
2023-03-27T06:13:39.369Z,19.30
2023-03-27T06:16:07.007Z,19.50
2023-03-27T06:18:34.500Z,19.60
2023-03-27T06:21:01.771Z,19.60
2023-03-27T06:23:28.610Z,19.70
2023-03-27T06:25:56.055Z,19.50
2023-03-27T06:28:22.991Z,19.50
2023-03-27T06:30:50.750Z,19.30
2023-03-27T06:33:17.593Z,19.40
2023-03-27T06:35:53.209Z,19.70
2023-03-27T06:38:20.937Z,19.70
2023-03-27T06:40:47.998Z,19.70
2023-03-27T06:43:18.201Z,19.70
2023-03-27T06:45:49.215Z,19.40
2023-03-27T06:48:20.569Z,19.00
2023-03-27T06:50:50.992Z,18.60
2023-03-27T06:53:27.295Z,18.30
2023-03-27T06:55:56.173Z,18.30
2023-03-27T06:58:23.518Z,18.40
2023-03-27T07:00:51.424Z,18.40
2023-03-27T07:03:20.682Z,18.90
2023-03-27T07:05:49.106Z,19.30
2023-03-27T07:08:24.384Z,19.30
2023-03-27T07:11:07.972Z,19.50
2023-03-27T07:13:39.248Z,19.30
2023-03-27T07:16:07.027Z,19.30
2023-03-27T07:18:34.016Z,19.70
2023-03-27T07:21:01.017Z,20.20
2023-03-27T07:23:28.000Z,20.20
2023-03-27T07:25:59.872Z,20.20
2023-03-27T07:28:27.312Z,20.30
2023-03-27T07:30:54.110Z,20.60
2023-03-27T07:33:21.125Z,20.80
2023-03-27T07:35:48.632Z,20.70
2023-03-27T07:38:16.825Z,20.60
2023-03-27T07:40:46.203Z,20.40
2023-03-27T07:43:13.784Z,20.40
2023-03-27T07:45:41.558Z,19.80
2023-03-27T07:48:11.926Z,19.90
2023-03-27T07:50:39.066Z,19.80
2023-03-27T07:53:06.630Z,19.60
2023-03-27T07:55:36.893Z,19.70
2023-03-27T07:58:04.202Z,19.70
2023-03-27T08:00:33.937Z,19.70
2023-03-27T08:03:08.929Z,19.40
2023-03-27T08:05:36.462Z,19.20
2023-03-27T08:08:04.974Z,19.10
2023-03-27T08:10:31.832Z,19.10
2023-03-27T08:12:58.696Z,19.20
2023-03-27T08:15:25.832Z,18.90
2023-03-27T08:17:55.207Z,19.10
2023-03-27T08:20:24.015Z,19.10
2023-03-27T08:22:52.668Z,19.20
2023-03-27T08:25:22.366Z,19.40
2023-03-27T08:27:49.578Z,19.30
2023-03-27T08:30:17.304Z,19.40
2023-03-27T08:32:44.802Z,19.40
2023-03-27T08:35:12.416Z,19.80
2023-03-27T08:37:39.737Z,19.90
2023-03-27T08:40:13.880Z,19.80
2023-03-27T08:42:44.176Z,19.50
2023-03-27T08:45:29.798Z,19.20
2023-03-27T08:48:05.722Z,19.00
2023-03-27T08:50:41.010Z,18.80
2023-03-27T08:53:17.485Z,18.80
2023-03-27T08:55:45.188Z,18.50
2023-03-27T08:58:21.685Z,18.20
2023-03-27T09:01:01.074Z,18.20
2023-03-27T09:03:43.653Z,18.10
2023-03-27T09:06:24.770Z,18.00
2023-03-27T09:09:14.790Z,17.90
2023-03-27T09:12:16.957Z,17.80
2023-03-27T09:14:48.916Z,17.80
2023-03-27T09:17:31.794Z,17.60
2023-03-27T09:20:22.541Z,17.70
2023-03-27T09:23:03.155Z,17.50
2023-03-27T09:25:38.365Z,17.60
2023-03-27T09:28:16.509Z,17.70
2023-03-27T09:30:43.314Z,17.80
2023-03-27T09:33:11.892Z,17.70
2023-03-27T09:35:39.557Z,17.50
2023-03-27T09:38:17.126Z,17.50
2023-03-27T09:40:49.123Z,17.40
2023-03-27T09:43:24.577Z,17.10
2023-03-27T09:45:53.358Z,17.20
2023-03-27T09:48:34.153Z,17.30
2023-03-27T09:51:02.444Z,17.50
2023-03-27T09:53:29.748Z,17.60
2023-03-27T09:56:06.310Z,17.30
2023-03-27T09:58:46.227Z,17.20
2023-03-27T10:01:16.638Z,17.30
2023-03-27T10:03:51.900Z,17.60
2023-03-27T10:06:43.219Z,17.70
2023-03-27T10:09:34.568Z,17.90
2023-03-27T10:12:04.863Z,17.60
2023-03-27T10:14:36.172Z,17.60
2023-03-27T10:17:03.633Z,17.60
2023-03-27T10:19:38.496Z,17.70
2023-03-27T10:22:19.290Z,17.50
2023-03-27T10:24:47.889Z,17.50
2023-03-27T10:27:25.455Z,17.60
2023-03-27T10:29:52.423Z,17.50
2023-03-27T10:32:19.269Z,17.30
2023-03-27T10:34:59.726Z,17.30
2023-03-27T10:37:32.052Z,17.30
2023-03-27T10:40:03.724Z,16.80
2023-03-27T10:42:32.714Z,16.60
2023-03-27T10:45:00.301Z,16.40
2023-03-27T10:47:32.036Z,16.40
2023-03-27T10:50:23.649Z,16.40
2023-03-27T10:53:05.836Z,16.40
2023-03-27T10:55:54.595Z,16.20
2023-03-27T10:58:42.324Z,16.10
2023-03-27T11:01:15.151Z,16.30
2023-03-27T11:03:54.611Z,16.40
2023-03-27T11:06:27.420Z,16.80
2023-03-27T11:09:05.665Z,17.00
2023-03-27T11:11:49.172Z,16.80
2023-03-27T11:14:36.009Z,16.70
2023-03-27T11:17:07.381Z,16.70
2023-03-27T11:19:54.710Z,16.60
2023-03-27T11:22:42.469Z,16.60
2023-03-27T11:25:22.017Z,16.70
2023-03-27T11:28:14.918Z,17.10
2023-03-27T11:31:15.473Z,17.40
2023-03-27T11:34:28.412Z,17.40
2023-03-27T11:37:02.520Z,17.30
2023-03-27T11:39:38.963Z,17.90
2023-03-27T11:42:16.533Z,17.90
2023-03-27T11:44:43.742Z,17.40
2023-03-27T11:47:37.070Z,17.00
2023-03-27T11:50:27.996Z,16.80
2023-03-27T11:53:21.352Z,16.80
2023-03-27T11:56:29.927Z,16.60
2023-03-27T11:59:11.017Z,16.40
2023-03-27T12:01:58.811Z,16.30
2023-03-27T12:05:01.723Z,16.20
2023-03-27T12:07:48.160Z,16.00
2023-03-27T12:10:32.758Z,16.00
2023-03-27T12:13:58.260Z,16.00
2023-03-27T12:16:37.298Z,15.90
2023-03-27T12:19:27.637Z,15.80
2023-03-27T12:22:21.076Z,16.00
2023-03-27T12:25:24.209Z,16.20
2023-03-27T12:28:23.720Z,16.20
2023-03-27T12:31:21.429Z,16.40
2023-03-27T12:34:01.612Z,16.40
2023-03-27T12:36:34.548Z,16.40
2023-03-27T12:39:02.044Z,16.50
2023-03-27T12:41:31.895Z,16.60
2023-03-27T12:44:01.174Z,16.60
2023-03-27T12:46:35.703Z,16.70
2023-03-27T12:49:10.833Z,16.70
2023-03-27T12:51:37.906Z,16.70
2023-03-27T12:54:26.394Z,16.60
2023-03-27T12:57:06.033Z,16.40
2023-03-27T12:59:40.103Z,16.20
2023-03-27T13:02:20.509Z,16.10
2023-03-27T13:05:24.046Z,16.10
2023-03-27T13:08:07.132Z,16.20
2023-03-27T13:10:52.773Z,15.90
2023-03-27T13:13:38.008Z,15.70
2023-03-27T13:16:30.608Z,15.90
2023-03-27T13:19:21.413Z,16.00
2023-03-27T13:21:57.734Z,15.90
2023-03-27T13:24:42.959Z,15.80
2023-03-27T13:27:47.346Z,15.90
2023-03-27T13:30:42.144Z,16.00
2023-03-27T13:33:16.339Z,15.90
2023-03-27T13:35:53.372Z,16.00
2023-03-27T13:38:52.689Z,16.10
2023-03-27T13:41:44.788Z,15.90
2023-03-27T13:44:36.556Z,15.80
2023-03-27T13:47:09.314Z,15.90
2023-03-27T13:49:59.529Z,15.80
2023-03-27T13:52:35.241Z,15.80
2023-03-27T13:55:17.263Z,16.00
2023-03-27T13:58:17.586Z,16.00
2023-03-27T14:01:09.693Z,16.10
2023-03-27T14:04:04.130Z,16.00
2023-03-27T14:06:31.542Z,16.00
2023-03-27T14:09:19.573Z,16.00
2023-03-27T14:12:06.544Z,15.60
2023-03-27T14:15:10.692Z,15.30
2023-03-27T14:18:16.444Z,15.20
2023-03-27T14:20:45.363Z,15.10
2023-03-27T14:23:45.490Z,15.00
2023-03-27T14:26:20.235Z,15.00
2023-03-27T14:28:51.722Z,15.00
2023-03-27T14:31:19.751Z,14.90
2023-03-27T14:34:01.915Z,15.00
2023-03-27T14:36:31.086Z,15.00
2023-03-27T14:39:06.470Z,15.00
2023-03-27T14:41:33.277Z,15.00
2023-03-27T14:44:03.885Z,14.90
2023-03-27T14:46:31.383Z,14.80
2023-03-27T14:48:59.808Z,14.70
2023-03-27T14:51:37.436Z,14.60
2023-03-27T14:54:08.822Z,14.70
2023-03-27T14:56:47.748Z,14.70
2023-03-27T14:59:24.298Z,14.60
2023-03-27T15:01:54.524Z,14.60
2023-03-27T15:04:21.337Z,14.60
2023-03-27T15:06:49.950Z,14.60
2023-03-27T15:09:20.288Z,14.50
2023-03-27T15:11:53.218Z,14.30
2023-03-27T15:14:27.007Z,14.30
2023-03-27T15:16:59.628Z,14.30
2023-03-27T15:19:35.236Z,14.30
2023-03-27T15:22:35.267Z,14.20
2023-03-27T15:25:04.233Z,14.20
2023-03-27T15:27:40.865Z,14.10
2023-03-27T15:30:48.081Z,14.10
2023-03-27T15:33:20.348Z,14.00
2023-03-27T15:35:51.850Z,13.90
2023-03-27T15:38:25.570Z,13.90
2023-03-27T15:41:20.728Z,13.80
2023-03-27T15:43:47.565Z,13.80
2023-03-27T15:46:19.564Z,13.80
2023-03-27T15:48:55.332Z,13.80
2023-03-27T15:51:22.235Z,13.80
2023-03-27T15:53:56.383Z,13.80
2023-03-27T15:56:25.021Z,13.70
2023-03-27T15:58:59.252Z,13.70
2023-03-27T16:01:36.289Z,13.70
2023-03-27T16:04:17.758Z,13.60
2023-03-27T16:06:47.348Z,13.50
2023-03-27T16:09:29.439Z,13.50
2023-03-27T16:11:59.667Z,13.50
2023-03-27T16:14:48.437Z,13.50
2023-03-27T16:17:18.879Z,13.50
2023-03-27T16:20:01.320Z,13.50
2023-03-27T16:22:38.982Z,13.60
2023-03-27T16:25:08.865Z,13.50
2023-03-27T16:27:46.096Z,13.50
2023-03-27T16:30:32.148Z,13.60
2023-03-27T16:33:00.243Z,13.60
2023-03-27T16:35:28.428Z,13.70
2023-03-27T16:37:55.514Z,13.60
2023-03-27T16:40:22.364Z,13.60
2023-03-27T16:42:49.288Z,13.50
2023-03-27T16:45:16.131Z,13.50
2023-03-27T16:47:43.111Z,13.60
2023-03-27T16:50:18.902Z,13.60
2023-03-27T16:52:59.996Z,13.60
2023-03-27T16:55:26.846Z,13.60
2023-03-27T16:57:55.172Z,13.50
2023-03-27T17:00:22.889Z,13.50
2023-03-27T17:02:52.625Z,13.40
2023-03-27T17:05:19.582Z,13.50
2023-03-27T17:07:46.985Z,13.40
2023-03-27T17:10:15.398Z,13.40
2023-03-27T17:12:42.806Z,13.50
2023-03-27T17:15:09.895Z,13.40
2023-03-27T17:17:36.786Z,13.40
2023-03-27T17:20:06.317Z,13.40
2023-03-27T17:22:33.434Z,13.20
2023-03-27T17:25:02.409Z,13.20
2023-03-27T17:27:29.577Z,13.20
2023-03-27T17:29:56.772Z,13.20
2023-03-27T17:32:27.355Z,13.20
2023-03-27T17:34:54.987Z,13.20
2023-03-27T17:37:22.566Z,13.30
2023-03-27T17:39:50.051Z,13.10
2023-03-27T17:42:17.190Z,13.10
2023-03-27T17:44:45.105Z,13.10
2023-03-27T17:47:12.451Z,13.00
2023-03-27T17:49:39.702Z,12.90
2023-03-27T17:52:11.034Z,12.90
2023-03-27T17:54:38.159Z,12.90
2023-03-27T17:57:05.354Z,12.90
2023-03-27T17:59:32.248Z,12.80
2023-03-27T18:01:59.357Z,12.90
2023-03-27T18:04:26.444Z,13.00
2023-03-27T18:06:53.392Z,12.90
2023-03-27T18:09:20.716Z,12.90
2023-03-27T18:11:47.568Z,12.90
2023-03-27T18:14:14.833Z,12.80
2023-03-27T18:16:41.776Z,12.80
2023-03-27T18:19:09.366Z,12.80
2023-03-27T18:21:36.246Z,12.70
2023-03-27T18:24:03.505Z,12.70
2023-03-27T18:26:30.427Z,12.80
2023-03-27T18:28:57.866Z,12.70
2023-03-27T18:31:25.417Z,12.60
2023-03-27T18:33:52.714Z,12.60
2023-03-27T18:36:20.445Z,12.60
2023-03-27T18:38:49.589Z,12.70
2023-03-27T18:41:16.608Z,12.60
2023-03-27T18:43:43.493Z,12.70
2023-03-27T18:46:16.424Z,12.70
2023-03-27T18:48:44.981Z,12.70
2023-03-27T18:51:13.744Z,12.80
2023-03-27T18:53:40.530Z,12.80
2023-03-27T18:56:08.208Z,13.00
2023-03-27T18:58:36.061Z,13.00
2023-03-27T19:01:08.351Z,12.80
2023-03-27T19:03:36.386Z,12.70
2023-03-27T19:06:05.730Z,12.70
2023-03-27T19:08:33.329Z,12.70
2023-03-27T19:11:00.446Z,12.60
2023-03-27T19:13:27.423Z,12.20
2023-03-27T19:15:54.252Z,12.10
2023-03-27T19:18:21.228Z,12.00
2023-03-27T19:20:48.295Z,12.00
2023-03-27T19:23:16.277Z,11.90
2023-03-27T19:25:47.544Z,11.90
2023-03-27T19:28:14.727Z,12.00
2023-03-27T19:30:41.985Z,12.00
2023-03-27T19:33:09.167Z,12.00
2023-03-27T19:35:35.983Z,11.90
2023-03-27T19:38:03.238Z,11.90
2023-03-27T19:40:30.286Z,11.90
2023-03-27T19:42:57.124Z,11.90
2023-03-27T19:45:23.951Z,11.90
2023-03-27T19:47:50.890Z,11.90
2023-03-27T19:50:18.000Z,11.90
2023-03-27T19:52:49.434Z,11.90
2023-03-27T19:55:25.397Z,11.90
2023-03-27T19:57:54.809Z,11.90
2023-03-27T20:00:21.790Z,11.90
2023-03-27T20:02:48.667Z,11.90
2023-03-27T20:05:15.611Z,11.90
2023-03-27T20:07:42.461Z,11.90
2023-03-27T20:10:09.788Z,11.90
2023-03-27T20:12:36.590Z,11.90
2023-03-27T20:15:11.482Z,11.90
2023-03-27T20:17:39.257Z,11.90
2023-03-27T20:20:07.593Z,11.90
2023-03-27T20:22:40.692Z,12.00
2023-03-27T20:25:14.522Z,12.00
2023-03-27T20:27:41.476Z,12.00
2023-03-27T20:30:14.051Z,12.00
2023-03-27T20:32:42.101Z,11.90
2023-03-27T20:35:20.519Z,12.00
2023-03-27T20:37:50.762Z,12.00
2023-03-27T20:40:18.811Z,12.00
2023-03-27T20:42:49.213Z,12.00
2023-03-27T20:45:19.326Z,11.90
2023-03-27T20:47:48.771Z,11.90
2023-03-27T20:50:16.664Z,11.90
2023-03-27T20:52:48.370Z,12.00
2023-03-27T20:55:22.874Z,12.00
2023-03-27T20:57:59.516Z,11.90
2023-03-27T21:00:26.682Z,11.90
2023-03-27T21:02:53.597Z,11.80
2023-03-27T21:05:20.944Z,11.80
2023-03-27T21:07:47.743Z,11.70
2023-03-27T21:10:14.877Z,11.80
2023-03-27T21:12:42.842Z,11.70
2023-03-27T21:15:10.367Z,11.60
2023-03-27T21:17:37.144Z,11.60
2023-03-27T21:20:05.953Z,11.60
2023-03-27T21:22:32.743Z,11.60
2023-03-27T21:24:59.509Z,11.60
2023-03-27T21:27:26.357Z,11.70
2023-03-27T21:29:53.170Z,11.50
2023-03-27T21:32:19.934Z,11.60
2023-03-27T21:34:46.779Z,11.50
2023-03-27T21:37:13.987Z,11.50
2023-03-27T21:39:40.935Z,11.60
2023-03-27T21:42:07.712Z,11.60
2023-03-27T21:44:34.622Z,11.60
2023-03-27T21:47:01.619Z,11.60
2023-03-27T21:49:28.590Z,11.50
2023-03-27T21:51:55.421Z,11.50
2023-03-27T21:54:22.794Z,11.40
2023-03-27T21:56:49.664Z,11.40
2023-03-27T21:59:16.604Z,11.40
2023-03-27T22:01:43.400Z,11.40
2023-03-27T22:04:10.472Z,11.40
2023-03-27T22:06:37.472Z,11.50
2023-03-27T22:09:04.375Z,11.50
2023-03-27T22:11:31.341Z,11.50
2023-03-27T22:13:59.256Z,11.50
2023-03-27T22:16:26.118Z,11.50
2023-03-27T22:18:53.001Z,11.50
2023-03-27T22:21:25.664Z,11.50
2023-03-27T22:23:53.802Z,11.50
2023-03-27T22:26:24.166Z,11.50
2023-03-27T22:28:52.610Z,11.30
2023-03-27T22:31:21.286Z,11.40
2023-03-27T22:33:48.856Z,11.30
2023-03-27T22:36:15.819Z,11.30
2023-03-27T22:38:43.462Z,11.30
2023-03-27T22:41:11.807Z,11.30
2023-03-27T22:43:39.101Z,11.30
2023-03-27T22:46:09.719Z,11.30
2023-03-27T22:48:36.507Z,11.20
2023-03-27T22:51:04.024Z,11.30
2023-03-27T22:53:33.595Z,11.20
2023-03-27T22:56:01.882Z,11.20
2023-03-27T22:58:30.033Z,11.30
2023-03-27T23:00:56.930Z,11.30
2023-03-27T23:03:25.937Z,11.30
2023-03-27T23:05:54.539Z,11.30
2023-03-27T23:08:24.118Z,11.30
2023-03-27T23:10:59.267Z,11.30
2023-03-27T23:13:27.548Z,11.30
2023-03-27T23:15:54.878Z,11.30
2023-03-27T23:18:24.708Z,11.20
2023-03-27T23:20:56.190Z,11.20
2023-03-27T23:23:23.551Z,11.20
2023-03-27T23:25:50.975Z,11.10
2023-03-27T23:28:17.860Z,11.10
2023-03-27T23:30:53.483Z,11.10
2023-03-27T23:33:21.817Z,11.10
2023-03-27T23:35:48.736Z,11.10
2023-03-27T23:38:15.557Z,11.10
2023-03-27T23:40:42.402Z,11.10
2023-03-27T23:43:09.208Z,11.10
2023-03-27T23:45:36.026Z,11.10
2023-03-27T23:48:03.655Z,11.10
2023-03-27T23:50:30.519Z,11.10
2023-03-27T23:52:57.303Z,11.00
2023-03-27T23:55:24.120Z,11.00
2023-03-27T23:57:51.008Z,10.90
